createdAt,value
2023-03-02T00:01:45.594Z,47.65
2023-03-02T00:04:12.102Z,47.16
2023-03-02T00:06:39.516Z,47.50
2023-03-02T00:09:06.000Z,47.79
2023-03-02T00:11:33.358Z,47.54
2023-03-02T00:16:43.732Z,47.86
2023-03-02T00:19:11.028Z,47.56
2023-03-02T00:21:37.489Z,47.85
2023-03-02T00:24:03.932Z,47.58
2023-03-02T00:26:30.851Z,47.48
2023-03-02T00:28:58.249Z,47.56
2023-03-02T00:31:24.729Z,47.48
2023-03-02T00:33:51.207Z,47.41
2023-03-02T00:36:17.655Z,47.47
2023-03-02T00:38:45.026Z,47.85
2023-03-02T00:41:12.435Z,47.26
2023-03-02T00:43:39.851Z,47.18
2023-03-02T00:46:07.180Z,47.52
2023-03-02T00:48:34.480Z,47.68
2023-03-02T00:51:00.904Z,47.49
2023-03-02T00:53:27.346Z,47.59
2023-03-02T00:55:53.866Z,47.60
2023-03-02T00:58:21.159Z,47.60
2023-03-02T01:00:47.575Z,47.50
2023-03-02T01:03:14.872Z,47.66
2023-03-02T01:05:41.313Z,47.54
2023-03-02T01:08:08.589Z,47.53
2023-03-02T01:10:35.902Z,47.43
2023-03-02T01:13:03.319Z,47.63
2023-03-02T01:15:30.674Z,47.70
2023-03-02T01:17:57.117Z,47.25
2023-03-02T01:20:23.584Z,47.66
2023-03-02T01:22:50.924Z,47.15
2023-03-02T01:25:18.367Z,47.31
2023-03-02T01:27:45.682Z,47.32
2023-03-02T01:30:13.024Z,47.39
2023-03-02T01:32:40.429Z,47.02
2023-03-02T01:35:06.891Z,47.50
2023-03-02T01:37:34.250Z,47.59
2023-03-02T01:40:00.648Z,47.51
2023-03-02T01:42:27.086Z,47.43
2023-03-02T01:44:55.404Z,47.37
2023-03-02T01:47:21.814Z,47.25
2023-03-02T01:49:48.323Z,47.48
2023-03-02T01:52:14.722Z,47.36
2023-03-02T01:54:41.135Z,47.08
2023-03-02T01:57:08.501Z,47.63
2023-03-02T01:59:34.925Z,47.64
2023-03-02T02:04:56.611Z,47.37
2023-03-02T02:07:23.948Z,47.40
2023-03-02T02:09:50.403Z,47.10
2023-03-02T02:12:17.790Z,47.61
2023-03-02T02:14:44.229Z,47.49
2023-03-02T02:19:56.512Z,47.71
2023-03-02T02:22:23.073Z,47.67
2023-03-02T02:24:50.327Z,47.22
2023-03-02T02:27:16.721Z,47.40
2023-03-02T02:29:44.029Z,47.21
2023-03-02T02:34:55.099Z,47.35
2023-03-02T02:37:22.331Z,47.52
2023-03-02T02:39:49.607Z,47.63
2023-03-02T02:42:16.027Z,47.85
2023-03-02T02:44:43.295Z,48.18
2023-03-02T02:49:55.330Z,47.37
2023-03-02T02:52:24.518Z,47.18
2023-03-02T02:54:51.774Z,47.53
2023-03-02T02:57:18.237Z,47.52
2023-03-02T02:59:45.470Z,47.52
2023-03-02T03:05:09.700Z,47.68
2023-03-02T03:07:36.971Z,47.58
2023-03-02T03:10:04.412Z,47.59
2023-03-02T03:12:32.689Z,47.45
2023-03-02T03:14:59.113Z,47.24
2023-03-02T03:20:19.613Z,48.11
2023-03-02T03:22:48.806Z,47.73
2023-03-02T03:25:15.301Z,47.51
2023-03-02T03:27:44.504Z,47.91
2023-03-02T03:30:12.782Z,47.69
2023-03-02T03:35:39.023Z,47.38
2023-03-02T03:38:08.203Z,47.57
2023-03-02T03:40:34.622Z,47.32
2023-03-02T03:43:01.139Z,47.88
2023-03-02T03:45:29.993Z,47.44
2023-03-02T03:50:43.636Z,47.72
2023-03-02T03:53:12.768Z,47.56
2023-03-02T03:55:41.064Z,47.37
2023-03-02T03:58:07.543Z,47.56
2023-03-02T04:00:34.052Z,47.94
2023-03-02T04:05:46.271Z,47.58
2023-03-02T04:08:14.575Z,47.50
2023-03-02T04:10:42.898Z,47.58
2023-03-02T04:13:09.313Z,47.54
2023-03-02T04:15:35.664Z,48.04
2023-03-02T04:20:58.752Z,47.53
2023-03-02T04:23:25.175Z,47.69
2023-03-02T04:25:51.600Z,47.56
2023-03-02T04:28:18.026Z,47.75
2023-03-02T04:30:44.522Z,47.55
2023-03-02T04:35:57.017Z,47.58
2023-03-02T04:38:23.454Z,47.62
2023-03-02T04:40:49.956Z,47.68
2023-03-02T04:43:17.199Z,47.66
2023-03-02T04:45:43.598Z,47.47
2023-03-02T04:51:07.149Z,47.27
2023-03-02T04:53:33.626Z,47.56
2023-03-02T04:55:59.988Z,47.46
2023-03-02T04:58:26.390Z,47.58
2023-03-02T05:00:52.760Z,47.65
2023-03-02T05:06:06.014Z,47.34
2023-03-02T05:08:33.234Z,47.28
2023-03-02T05:10:59.693Z,47.47
2023-03-02T05:13:26.102Z,47.42
2023-03-02T05:15:54.427Z,47.33
2023-03-02T05:21:04.751Z,47.67
2023-03-02T05:23:31.979Z,47.75
2023-03-02T05:25:59.213Z,47.59
2023-03-02T05:28:26.451Z,47.51
2023-03-02T05:30:53.680Z,47.44
2023-03-02T05:36:19.292Z,47.37
2023-03-02T05:38:46.662Z,47.78
2023-03-02T05:41:15.836Z,47.63
2023-03-02T05:43:43.173Z,47.61
2023-03-02T05:46:09.574Z,47.62
2023-03-02T05:51:19.867Z,47.73
2023-03-02T05:53:46.231Z,47.37
2023-03-02T05:56:13.449Z,47.89
2023-03-02T05:58:39.834Z,47.46
2023-03-02T06:01:07.056Z,47.63
2023-03-02T06:06:17.625Z,47.66
2023-03-02T06:08:44.022Z,47.96
2023-03-02T06:11:10.498Z,47.56
2023-03-02T06:13:37.748Z,47.38
2023-03-02T06:16:04.160Z,47.67
2023-03-02T06:21:25.463Z,47.69
2023-03-02T06:23:52.716Z,47.57
2023-03-02T06:26:19.070Z,47.44
2023-03-02T06:28:53.669Z,47.67
2023-03-02T06:31:20.409Z,47.35
2023-03-02T06:36:33.132Z,47.03
2023-03-02T06:39:00.605Z,47.02
2023-03-02T06:41:27.169Z,47.03
2023-03-02T06:43:54.411Z,47.44
2023-03-02T06:46:21.766Z,46.92
2023-03-02T06:51:45.161Z,46.76
2023-03-02T06:54:11.592Z,46.51
2023-03-02T06:56:40.957Z,46.73
2023-03-02T06:59:08.466Z,46.66
2023-03-02T07:01:35.232Z,46.63
2023-03-02T07:06:48.049Z,46.45
2023-03-02T07:09:15.419Z,46.21
2023-03-02T07:11:41.942Z,46.14
2023-03-02T07:14:08.399Z,46.10
2023-03-02T07:16:35.904Z,46.57
2023-03-02T07:21:57.037Z,45.96
2023-03-02T07:24:23.500Z,45.91
2023-03-02T07:26:50.003Z,46.04
2023-03-02T07:29:17.419Z,46.42
2023-03-02T07:31:44.121Z,46.26
2023-03-02T07:34:10.601Z,46.51
2023-03-02T07:36:38.318Z,46.29
2023-03-02T07:39:04.780Z,46.22
2023-03-02T07:41:31.700Z,46.32
2023-03-02T07:43:58.529Z,46.44
2023-03-02T07:46:25.217Z,46.87
2023-03-02T07:48:52.776Z,46.49
2023-03-02T07:51:20.483Z,46.53
2023-03-02T07:53:47.278Z,46.45
2023-03-02T07:56:14.090Z,46.36
2023-03-02T07:58:41.898Z,46.27
2023-03-02T08:01:08.556Z,46.57
2023-03-02T08:03:35.937Z,46.63
2023-03-02T08:06:03.341Z,46.75
2023-03-02T08:08:29.815Z,46.77
2023-03-02T08:10:56.252Z,46.74
2023-03-02T08:13:23.639Z,46.80
2023-03-02T08:15:50.230Z,46.62
2023-03-02T08:18:16.705Z,47.04
2023-03-02T08:20:43.149Z,46.77
2023-03-02T08:23:09.636Z,46.85
2023-03-02T08:25:37.039Z,47.38
2023-03-02T08:28:04.472Z,46.83
2023-03-02T08:30:31.882Z,47.29
2023-03-02T08:33:02.146Z,47.22
2023-03-02T08:35:30.722Z,47.29
2023-03-02T08:37:57.193Z,46.99
2023-03-02T08:40:24.600Z,47.57
2023-03-02T08:42:51.972Z,47.45
2023-03-02T08:45:19.409Z,47.62
2023-03-02T08:47:46.801Z,47.72
2023-03-02T08:50:14.219Z,47.53
2023-03-02T08:52:41.473Z,47.68
2023-03-02T08:55:08.038Z,47.60
2023-03-02T08:57:34.565Z,47.67
2023-03-02T09:00:01.024Z,47.90
2023-03-02T09:02:28.402Z,47.34
2023-03-02T09:04:55.923Z,47.85
2023-03-02T09:10:17.265Z,47.64
2023-03-02T09:12:44.015Z,47.69
2023-03-02T09:15:11.402Z,47.90
2023-03-02T09:17:37.837Z,47.53
2023-03-02T09:20:04.351Z,47.65
2023-03-02T09:25:15.849Z,47.48
2023-03-02T09:27:42.282Z,47.62
2023-03-02T09:30:08.746Z,47.98
2023-03-02T09:32:35.290Z,47.56
2023-03-02T09:35:01.844Z,47.48
2023-03-02T09:40:13.252Z,47.30
2023-03-02T09:42:44.187Z,47.70
2023-03-02T09:45:11.867Z,47.43
2023-03-02T09:47:39.141Z,47.42
2023-03-02T09:50:05.558Z,47.65
2023-03-02T09:55:26.511Z,47.75
2023-03-02T09:57:52.941Z,47.34
2023-03-02T10:00:20.393Z,47.64
2023-03-02T10:02:47.978Z,47.23
2023-03-02T10:05:15.249Z,46.80
2023-03-02T10:10:25.798Z,47.31
2023-03-02T10:12:53.133Z,47.43
2023-03-02T10:15:19.578Z,47.25
2023-03-02T10:17:46.830Z,47.26
2023-03-02T10:20:13.300Z,46.95
2023-03-02T10:25:26.443Z,47.00
2023-03-02T10:27:54.901Z,46.85
2023-03-02T10:30:21.481Z,46.97
2023-03-02T10:32:48.915Z,47.21
2023-03-02T10:35:16.328Z,46.96
2023-03-02T10:40:37.757Z,47.19
2023-03-02T10:43:05.566Z,47.14
2023-03-02T10:45:33.001Z,46.41
2023-03-02T10:47:59.509Z,46.69
2023-03-02T10:50:26.003Z,46.28
2023-03-02T10:55:38.785Z,46.04
2023-03-02T10:58:05.258Z,46.92
2023-03-02T11:00:31.731Z,46.70
2023-03-02T11:02:58.188Z,45.93
2023-03-02T11:05:24.665Z,46.44
2023-03-02T11:10:35.892Z,46.71
2023-03-02T11:13:02.327Z,46.30
2023-03-02T11:15:28.889Z,46.22
2023-03-02T11:17:55.295Z,46.24
2023-03-02T11:20:21.925Z,46.85
2023-03-02T11:25:44.563Z,46.48
2023-03-02T11:28:12.879Z,47.26
2023-03-02T11:30:41.095Z,48.14
2023-03-02T11:33:08.367Z,47.92
2023-03-02T11:35:34.863Z,47.54
2023-03-02T11:40:56.110Z,46.57
2023-03-02T11:43:22.593Z,47.92
2023-03-02T11:45:49.113Z,47.56
2023-03-02T11:48:16.573Z,47.51
2023-03-02T11:50:43.031Z,47.61
2023-03-02T11:55:54.221Z,48.04
2023-03-02T11:58:21.436Z,47.71
2023-03-02T12:00:48.713Z,47.61
2023-03-02T12:03:15.132Z,47.61
2023-03-02T12:05:43.470Z,48.15
2023-03-02T12:10:56.547Z,47.83
2023-03-02T12:13:23.020Z,48.30
2023-03-02T12:15:52.226Z,48.12
2023-03-02T12:18:21.369Z,47.92
2023-03-02T12:20:48.704Z,47.89
2023-03-02T12:26:02.283Z,48.00
2023-03-02T12:28:28.682Z,48.18
2023-03-02T12:30:55.058Z,48.35
2023-03-02T12:33:21.494Z,48.23
2023-03-02T12:35:47.950Z,48.17
2023-03-02T12:38:14.422Z,48.94
2023-03-02T12:40:41.114Z,48.50
2023-03-02T12:43:07.512Z,48.68
2023-03-02T12:45:34.011Z,49.00
2023-03-02T12:48:00.787Z,48.65
2023-03-02T12:50:27.358Z,48.56
2023-03-02T12:52:55.603Z,48.41
2023-03-02T12:55:22.836Z,47.95
2023-03-02T12:57:49.207Z,47.79
2023-03-02T13:00:15.567Z,48.46
2023-03-02T13:02:41.933Z,47.94
2023-03-02T13:05:09.171Z,48.29
2023-03-02T13:07:36.407Z,48.45
2023-03-02T13:10:02.937Z,48.21
2023-03-02T13:12:29.364Z,48.41
2023-03-02T13:14:55.772Z,48.35
2023-03-02T13:17:22.151Z,47.79
2023-03-02T13:19:48.500Z,47.66
2023-03-02T13:22:14.922Z,48.33
2023-03-02T13:24:42.232Z,48.01
2023-03-02T13:27:08.598Z,48.01
2023-03-02T13:29:34.974Z,47.84
2023-03-02T13:32:02.240Z,47.48
2023-03-02T13:34:28.686Z,47.55
2023-03-02T13:36:57.820Z,47.58
2023-03-02T13:39:25.037Z,47.31
2023-03-02T13:41:51.440Z,47.10
2023-03-02T13:44:18.137Z,46.96
2023-03-02T13:46:44.557Z,46.64
2023-03-02T13:49:11.758Z,46.76
2023-03-02T13:51:39.194Z,46.44
2023-03-02T13:54:05.602Z,46.64
2023-03-02T13:59:27.743Z,46.95
2023-03-02T14:01:57.032Z,46.98
2023-03-02T14:04:26.700Z,46.98
2023-03-02T14:06:53.611Z,47.15
2023-03-02T14:09:20.115Z,46.96
2023-03-02T14:14:31.347Z,47.05
2023-03-02T14:16:57.843Z,46.87
2023-03-02T14:19:26.186Z,47.10
2023-03-02T14:21:52.621Z,47.06
2023-03-02T14:24:20.901Z,46.97
2023-03-02T14:29:31.988Z,46.65
2023-03-02T14:32:01.252Z,46.79
2023-03-02T14:34:30.430Z,46.52
2023-03-02T14:36:56.833Z,46.67
2023-03-02T14:39:25.153Z,46.70
2023-03-02T14:44:40.010Z,46.60
2023-03-02T14:47:06.514Z,46.82
2023-03-02T14:49:32.936Z,46.59
2023-03-02T14:51:59.721Z,46.72
2023-03-02T14:54:26.219Z,46.57
2023-03-02T14:59:49.296Z,46.72
2023-03-02T15:02:25.288Z,46.58
2023-03-02T15:04:55.928Z,46.54
2023-03-02T15:07:25.646Z,46.77
2023-03-02T15:09:54.037Z,46.48
2023-03-02T15:15:04.490Z,46.48
2023-03-02T15:17:32.772Z,46.67
2023-03-02T15:19:59.208Z,46.69
2023-03-02T15:22:28.391Z,46.50
2023-03-02T15:24:56.703Z,46.53
2023-03-02T15:30:09.291Z,46.42
2023-03-02T15:32:35.670Z,46.59
2023-03-02T15:35:02.094Z,46.50
2023-03-02T15:37:28.494Z,46.28
2023-03-02T15:39:57.692Z,46.65
2023-03-02T15:45:18.652Z,46.31
2023-03-02T15:47:46.016Z,46.10
2023-03-02T15:50:12.416Z,46.46
2023-03-02T15:52:38.819Z,46.07
2023-03-02T15:55:05.183Z,46.22
2023-03-02T16:00:16.166Z,46.05
2023-03-02T16:02:44.454Z,46.15
2023-03-02T16:05:11.244Z,46.42
2023-03-02T16:07:37.628Z,46.09
2023-03-02T16:10:03.996Z,46.21
2023-03-02T16:15:14.401Z,46.00
2023-03-02T16:17:40.789Z,45.97
2023-03-02T16:20:07.276Z,46.21
2023-03-02T16:22:34.505Z,45.93
2023-03-02T16:25:02.726Z,46.06
2023-03-02T16:30:23.767Z,46.16
2023-03-02T16:32:50.403Z,46.22
2023-03-02T16:35:16.843Z,45.84
2023-03-02T16:37:43.314Z,46.42
2023-03-02T16:40:09.748Z,46.34
2023-03-02T16:45:20.293Z,46.04
2023-03-02T16:47:46.832Z,46.29
2023-03-02T16:50:13.181Z,46.48
2023-03-02T16:52:39.673Z,46.34
2023-03-02T16:55:06.994Z,46.74
2023-03-02T17:00:20.264Z,46.91
2023-03-02T17:02:46.818Z,46.52
2023-03-02T17:05:14.191Z,46.56
2023-03-02T17:07:40.614Z,46.60
2023-03-02T17:10:07.122Z,46.67
2023-03-02T17:15:31.332Z,46.61
2023-03-02T17:17:57.937Z,46.65
2023-03-02T17:20:25.175Z,46.81
2023-03-02T17:22:52.545Z,47.07
2023-03-02T17:25:19.011Z,47.17
2023-03-02T17:30:30.707Z,47.45
2023-03-02T17:32:57.186Z,47.05
2023-03-02T17:35:23.666Z,47.42
2023-03-02T17:37:50.182Z,47.62
2023-03-02T17:40:17.678Z,47.32
2023-03-02T17:45:40.107Z,47.77
2023-03-02T17:48:06.586Z,47.77
2023-03-02T17:50:33.029Z,47.43
2023-03-02T17:52:59.539Z,47.89
2023-03-02T17:55:26.049Z,48.01
2023-03-02T18:00:36.482Z,47.89
2023-03-02T18:03:03.923Z,47.95
2023-03-02T18:05:31.386Z,47.86
2023-03-02T18:07:57.835Z,47.77
2023-03-02T18:10:25.311Z,47.47
2023-03-02T18:15:36.168Z,47.63
2023-03-02T18:18:02.645Z,47.61
2023-03-02T18:20:30.029Z,47.40
2023-03-02T18:22:57.483Z,47.66
2023-03-02T18:25:24.876Z,47.70
2023-03-02T18:30:46.205Z,47.72
2023-03-02T18:33:13.002Z,47.68
2023-03-02T18:35:40.407Z,47.43
2023-03-02T18:38:07.771Z,47.15
2023-03-02T18:40:34.232Z,47.38
2023-03-02T18:45:45.719Z,47.73
2023-03-02T18:48:13.105Z,47.24
2023-03-02T18:50:39.571Z,47.32
2023-03-02T18:53:06.966Z,47.15
2023-03-02T18:55:33.451Z,47.25
2023-03-02T18:57:59.912Z,47.59
2023-03-02T19:00:27.964Z,47.10
2023-03-02T19:02:54.755Z,47.47
2023-03-02T19:05:22.177Z,47.38
2023-03-02T19:07:48.691Z,47.09
2023-03-02T19:10:16.114Z,47.48
2023-03-02T19:12:43.541Z,47.39
2023-03-02T19:15:10.217Z,47.23
2023-03-02T19:17:36.656Z,47.02
2023-03-02T19:20:03.145Z,47.42
2023-03-02T19:22:29.642Z,47.09
2023-03-02T19:24:56.122Z,47.23
2023-03-02T19:27:25.310Z,47.08
2023-03-02T19:29:51.792Z,47.47
2023-03-02T19:32:19.434Z,47.10
2023-03-02T19:34:46.861Z,47.03
2023-03-02T19:37:13.339Z,47.24
2023-03-02T19:39:40.752Z,46.96
2023-03-02T19:42:07.249Z,47.24
2023-03-02T19:44:33.925Z,46.94
2023-03-02T19:47:00.396Z,46.93
2023-03-02T19:49:26.867Z,47.06
2023-03-02T19:51:53.373Z,47.21
2023-03-02T19:54:19.847Z,47.13
2023-03-02T19:56:46.345Z,47.05
2023-03-02T19:59:12.802Z,47.11
2023-03-02T20:01:39.301Z,46.96
2023-03-02T20:04:05.775Z,46.89
2023-03-02T20:06:34.031Z,46.92
2023-03-02T20:09:00.575Z,47.39
2023-03-02T20:11:27.419Z,46.99
2023-03-02T20:13:54.852Z,47.23
2023-03-02T20:19:05.239Z,47.14
2023-03-02T20:21:32.676Z,46.85
2023-03-02T20:23:59.200Z,47.02
2023-03-02T20:26:25.724Z,46.84
2023-03-02T20:28:53.179Z,47.02
2023-03-02T20:34:03.637Z,47.52
2023-03-02T20:36:30.134Z,47.81
2023-03-02T20:38:57.539Z,47.10
2023-03-02T20:41:24.050Z,47.17
2023-03-02T20:43:51.481Z,47.30
2023-03-02T20:49:02.185Z,47.30
2023-03-02T20:51:28.669Z,47.30
2023-03-02T20:53:55.153Z,45.73
2023-03-02T20:56:21.603Z,46.00
2023-03-02T20:58:48.082Z,45.99
2023-03-02T21:04:00.566Z,46.22
2023-03-02T21:06:40.161Z,45.02
2023-03-02T21:09:06.823Z,44.56
2023-03-02T21:11:33.305Z,44.36
2023-03-02T21:14:00.780Z,42.69
2023-03-02T21:16:27.275Z,43.53
2023-03-02T21:18:54.688Z,43.20
2023-03-02T21:21:29.706Z,44.93
2023-03-02T21:24:03.217Z,45.71
2023-03-02T21:26:29.738Z,45.74
2023-03-02T21:28:57.178Z,45.31
2023-03-02T21:31:23.738Z,44.06
2023-03-02T21:33:50.406Z,43.67
2023-03-02T21:36:17.877Z,42.25
2023-03-02T21:38:45.307Z,43.80
2023-03-02T21:41:12.709Z,45.31
2023-03-02T21:43:40.112Z,45.30
2023-03-02T21:46:08.324Z,46.40
2023-03-02T21:48:35.772Z,45.49
2023-03-02T21:51:02.252Z,45.53
2023-03-02T21:53:30.665Z,45.39
2023-03-02T21:55:58.111Z,45.61
2023-03-02T21:58:24.596Z,45.54
2023-03-02T22:00:51.100Z,45.27
2023-03-02T22:03:18.532Z,45.94
2023-03-02T22:05:45.083Z,45.51
2023-03-02T22:08:12.464Z,46.09
2023-03-02T22:10:38.948Z,45.32
2023-03-02T22:13:06.383Z,46.13
2023-03-02T22:15:32.849Z,45.70
2023-03-02T22:17:59.316Z,45.67
2023-03-02T22:20:25.797Z,45.51
2023-03-02T22:22:53.221Z,45.60
2023-03-02T22:25:19.678Z,45.78
2023-03-02T22:27:47.079Z,45.42
2023-03-02T22:30:14.474Z,45.54
2023-03-02T22:32:41.049Z,45.36
2023-03-02T22:35:07.546Z,45.51
2023-03-02T22:37:34.038Z,45.58
2023-03-02T22:40:00.493Z,45.42
2023-03-02T22:42:27.902Z,45.74
2023-03-02T22:44:54.393Z,45.24
2023-03-02T22:47:20.874Z,45.64
2023-03-02T22:49:47.384Z,45.03
2023-03-02T22:52:13.848Z,45.00
2023-03-02T22:54:40.369Z,45.26
2023-03-02T22:57:07.789Z,45.21
2023-03-02T22:59:34.256Z,45.26
2023-03-02T23:02:00.708Z,45.21
2023-03-02T23:04:27.232Z,45.76
2023-03-02T23:06:54.672Z,45.59
2023-03-02T23:09:21.151Z,45.13
2023-03-02T23:11:48.547Z,46.47
2023-03-02T23:14:15.940Z,45.50
2023-03-02T23:16:42.432Z,45.38
2023-03-02T23:19:08.977Z,44.98
2023-03-02T23:21:36.361Z,46.42
2023-03-02T23:24:02.896Z,45.16
2023-03-02T23:26:30.282Z,45.40
2023-03-02T23:28:56.737Z,45.15
2023-03-02T23:31:23.268Z,44.92
2023-03-02T23:33:50.705Z,46.31
2023-03-02T23:36:18.102Z,44.72
2023-03-02T23:38:44.549Z,45.45
2023-03-02T23:41:11.979Z,44.85
2023-03-02T23:43:38.456Z,44.85
2023-03-02T23:46:04.953Z,45.06
2023-03-02T23:48:31.508Z,45.04
2023-03-02T23:50:57.999Z,45.09
2023-03-02T23:53:24.469Z,44.93
2023-03-02T23:55:50.948Z,45.11
2023-03-02T23:58:18.415Z,44.76
